Time;durP1;ratioP1;P1;durP2;ratioP2;P2;SDS_P1;SDS_P2;PMS_P1;PMS_P2;Temp;Humidity;BMP_temperature;BMP_pressure;BME280_temperature;BME280_humidity;BME280_pressure;Samples;Min_cycle;Max_cycle;Signal;HPM_P1;HPM_P2
2022/01/23 00:02:10;;;;;;;11.10;7.90;;;;;;;-7.17;77.39;97780.82;110568;1244;66957;-67
2022/01/23 00:04:40;;;;;;;15.30;10.30;;;;;;;-7.15;77.47;97779.14;110638;1244;68627;-69
2022/01/23 00:07:13;;;;;;;12.70;9.00;;;;;;;-7.13;77.59;97778.62;110572;1244;59802;-66
2022/01/23 00:09:43;;;;;;;11.60;9.10;;;;;;;-7.12;77.64;97778.80;110541;1244;59605;-66
2022/01/23 00:12:17;;;;;;;20.60;12.80;;;;;;;-7.10;77.85;97783.55;110375;1246;71461;-66
2022/01/23 00:17:35;;;;;;;25.00;15.50;;;;;;;-7.12;78.04;97784.05;110384;1247;68830;-66
2022/01/23 00:20:14;;;;;;;38.60;22.90;;;;;;;-7.14;78.01;97778.11;110453;1246;59722;-65
2022/01/23 00:22:50;;;;;;;41.30;24.50;;;;;;;-7.26;77.86;97782.31;110558;1246;59663;-66
2022/01/23 00:30:58;;;;;;;26.50;17.00;;;;;;;-7.72;80.03;97791.76;110513;1247;68786;-67
2022/01/23 00:33:27;;;;;;;17.80;11.60;;;;;;;-7.77;80.86;97792.75;110425;1246;59742;-66
2022/01/23 00:35:56;;;;;;;15.00;10.10;;;;;;;-7.73;80.57;97794.13;110530;1245;59679;-67
2022/01/23 00:38:25;;;;;;;18.70;9.10;;;;;;;-7.67;80.69;97789.75;110318;1246;69608;-67
2022/01/23 00:40:54;;;;;;;17.60;10.40;;;;;;;-7.60;80.60;97782.17;110217;1247;69410;-66
2022/01/23 00:43:30;;;;;;;18.00;11.40;;;;;;;-7.53;80.58;97783.22;110253;1247;70121;-68
2022/01/23 00:51:27;;;;;;;13.80;8.80;;;;;;;-7.32;80.32;97789.24;110394;1246;71524;-67
2022/01/23 00:53:59;;;;;;;12.30;8.10;;;;;;;-7.27;80.01;97788.23;110568;1247;68365;-65
2022/01/23 00:56:28;;;;;;;14.20;9.00;;;;;;;-7.20;79.77;97787.92;110579;1245;69443;-68
2022/01/23 00:58:57;;;;;;;11.50;6.90;;;;;;;-7.15;79.79;97789.46;110542;1247;59696;-66
2022/01/23 01:01:26;;;;;;;14.60;8.30;;;;;;;-7.12;79.74;97791.16;110553;1246;59618;-66
2022/01/23 01:03:56;;;;;;;8.20;7.20;;;;;;;-7.11;79.52;97786.61;110266;1247;72209;-65
2022/01/23 01:06:26;;;;;;;17.10;11.70;;;;;;;-7.11;79.38;97786.60;110136;1247;68635;-65
2022/01/23 01:09:01;;;;;;;11.40;8.90;;;;;;;-7.12;79.53;97785.57;110052;1248;67616;-65
2022/01/23 01:14:30;;;;;;;14.50;8.80;;;;;;;-7.14;79.38;97788.45;110111;1247;59693;-66
2022/01/23 01:36:38;;;;;;;12.50;8.60;;;;;;;-7.32;79.19;97773.31;109894;1247;68747;-66
2022/01/23 01:39:08;;;;;;;12.40;8.20;;;;;;;-7.31;79.10;97774.51;110113;1247;59734;-66
2022/01/23 01:41:40;;;;;;;16.70;10.90;;;;;;;-7.30;78.66;97777.39;110154;1247;59793;-65
2022/01/23 01:44:11;;;;;;;12.30;8.70;;;;;;;-7.30;78.61;97776.04;110137;1247;70761;-68
2022/01/23 01:47:02;;;;;;;14.20;10.70;;;;;;;-7.32;78.33;97778.23;110071;1246;67921;-68
2022/01/23 01:49:37;;;;;;;17.70;11.80;;;;;;;-7.35;78.34;97780.42;110295;1247;69425;-66
2022/01/23 01:52:08;;;;;;;20.40;11.60;;;;;;;-7.38;78.24;97776.17;110405;1247;59754;-66
2022/01/23 01:54:38;;;;;;;16.30;9.10;;;;;;;-7.41;78.48;97777.34;110274;1247;59674;-66
2022/01/23 01:57:20;;;;;;;14.50;8.90;;;;;;;-7.44;78.57;97771.75;110236;1247;72428;-68
2022/01/23 02:00:25;;;;;;;16.20;10.80;;;;;;;-7.47;78.67;97769.20;110219;1247;68433;-65
2022/01/23 02:03:20;;;;;;;18.30;12.40;;;;;;;-7.49;78.72;97765.13;110180;1247;69430;-66
2022/01/23 02:08:41;;;;;;;24.40;13.10;;;;;;;-7.54;78.74;97756.48;110263;1247;59699;-64
2022/01/23 02:11:22;;;;;;;13.30;9.40;;;;;;;-7.56;78.63;97761.55;110530;1247;71529;-67
2022/01/23 02:14:14;;;;;;;10.60;7.50;;;;;;;-7.58;78.71;97761.20;110522;1246;67814;-66
2022/01/23 02:51:05;;;;;;;24.00;14.80;;;;;;;-7.54;79.59;97793.04;110248;1247;59688;-68
2022/01/23 02:56:32;;;;;;;12.00;7.80;;;;;;;-7.45;79.49;97799.34;110056;1247;68570;-66
2022/01/23 02:59:18;;;;;;;16.70;9.60;;;;;;;-7.42;79.16;97806.30;110147;1247;68720;-66
2022/01/23 03:02:12;;;;;;;19.10;12.20;;;;;;;-7.40;78.97;97806.98;110054;1246;59689;-66
2022/01/23 03:05:12;;;;;;;21.20;12.40;;;;;;;-7.42;78.91;97800.04;110294;1247;59767;-65
2022/01/23 03:10:45;;;;;;;22.10;13.70;;;;;;;-7.57;78.57;97799.45;110263;1247;68650;-64
2022/01/23 03:13:44;;;;;;;20.20;11.40;;;;;;;-7.69;79.51;97799.73;110192;1247;68314;-65
2022/01/23 03:32:38;;;;;;;13.30;9.10;;;;;;;-7.35;79.27;97796.51;110013;1247;59767;-68
2022/01/23 03:35:07;;;;;;;14.90;9.20;;;;;;;-7.32;79.03;97789.06;110207;1247;71364;-65
2022/01/23 03:37:37;;;;;;;23.70;13.80;;;;;;;-7.31;78.87;97781.78;110086;1246;67779;-66
2022/01/23 03:40:09;;;;;;;31.30;18.50;;;;;;;-7.32;78.76;97775.01;110165;1247;69412;-66
2022/01/23 03:42:42;;;;;;;35.90;21.50;;;;;;;-7.37;78.76;97777.35;110128;1247;59716;-65
2022/01/23 03:50:33;;;;;;;39.00;23.40;;;;;;;-7.65;79.56;97781.30;110093;1247;68570;-66
2022/01/23 03:53:05;;;;;;;38.30;21.60;;;;;;;-7.69;79.53;97779.42;110085;1245;68493;-66
2022/01/23 03:55:37;;;;;;;38.20;22.10;;;;;;;-7.77;79.78;97775.66;109967;1247;59737;-65
2022/01/23 03:58:07;;;;;;;39.50;20.80;;;;;;;-7.86;80.49;97777.11;110178;1247;59652;-68
2022/01/23 04:00:37;;;;;;;28.70;19.00;;;;;;;-7.87;80.22;97780.17;109865;1247;71016;-64
2022/01/23 04:03:07;;;;;;;34.50;19.70;;;;;;;-7.90;80.01;97782.86;110262;1246;68583;-65
2022/01/23 04:05:39;;;;;;;29.30;19.00;;;;;;;-7.89;79.99;97787.11;110110;1247;69394;-66
2022/01/23 04:08:09;;;;;;;33.70;20.40;;;;;;;-7.86;80.44;97789.83;110049;1247;59684;-66
2022/01/23 04:10:39;;;;;;;24.20;14.60;;;;;;;-7.82;80.75;97792.21;110012;1247;59637;-69
2022/01/23 04:15:50;;;;;;;16.50;9.80;;;;;;;-7.72;80.11;97788.72;110237;1246;68574;-65
2022/01/23 04:35:16;;;;;;;13.60;8.90;;;;;;;-7.31;79.09;97784.48;110029;1247;59713;-66
2022/01/23 05:00:09;;;;;;;31.00;19.70;;;;;;;-7.00;78.98;97771.20;110146;1245;68464;-66
2022/01/23 05:03:18;;;;;;;;;;;;;;;-6.99;78.53;97765.44;110171;1247;59652;-67
2022/01/23 05:06:00;;;;;;;44.40;24.50;;;;;;;-7.02;78.44;97761.71;110385;1245;59738;-65
2022/01/23 05:09:02;;;;;;;23.40;14.50;;;;;;;-7.08;78.38;97758.14;110154;1245;71017;-66
2022/01/23 05:11:50;;;;;;;;;;;;;;;-7.08;78.28;97756.27;110329;1245;68818;-68
2022/01/23 05:14:46;;;;;;;34.30;17.00;;;;;;;-7.07;78.45;97756.63;110229;1247;68470;-66
2022/01/23 05:17:15;;;;;;;29.90;18.10;;;;;;;-7.05;78.59;97755.27;110472;1245;59686;-66
2022/01/23 05:19:44;;;;;;;34.90;20.50;;;;;;;-7.01;78.65;97759.52;110217;1247;59679;-68
2022/01/23 05:24:52;;;;;;;19.90;11.80;;;;;;;-6.93;78.51;97751.23;110267;1247;69269;-67
2022/01/23 05:27:23;;;;;;;23.50;11.90;;;;;;;-6.91;78.35;97748.17;110168;1247;68625;-67
2022/01/23 05:29:54;;;;;;;21.00;13.10;;;;;;;-6.88;78.42;97749.54;110149;1247;59732;-65
2022/01/23 05:32:26;;;;;;;26.60;17.80;;;;;;;-6.88;78.16;97741.92;110378;1245;59712;-66
2022/01/23 05:34:56;;;;;;;29.30;16.90;;;;;;;-6.94;78.21;97740.73;109869;1248;70369;-64
2022/01/23 05:37:30;;;;;;;22.80;15.70;;;;;;;-6.99;78.34;97743.09;109932;1248;67817;-67
2022/01/23 05:40:01;;;;;;;75.60;32.80;;;;;;;-7.05;78.58;97737.98;110053;1247;69226;-65
2022/01/23 05:42:34;;;;;;;74.10;32.70;;;;;;;-7.11;78.84;97734.27;110079;1247;59679;-65
2022/01/23 05:45:05;;;;;;;48.70;21.90;;;;;;;-7.13;78.94;97731.19;110361;1244;59747;-66
2022/01/23 05:47:54;;;;;;;62.70;26.20;;;;;;;-7.11;79.20;97731.03;110603;1244;71498;-66
2022/01/23 05:50:43;;;;;;;28.10;14.90;;;;;;;-7.05;79.28;97730.20;110199;1244;67845;-66
2022/01/23 05:53:35;;;;;;;38.40;19.70;;;;;;;-6.99;79.27;97729.19;109969;1248;68693;-67
2022/01/23 05:56:19;;;;;;;32.70;17.80;;;;;;;-6.94;79.16;97735.98;110335;1247;59741;-67
2022/01/23 05:58:57;;;;;;;25.50;14.70;;;;;;;-6.90;79.31;97742.24;110264;1247;59689;-66
2022/01/23 06:01:30;;;;;;;23.70;12.00;;;;;;;-6.86;79.13;97743.95;110260;1245;72276;-66
2022/01/23 06:04:20;;;;;;;12.60;8.40;;;;;;;-6.81;78.87;97750.73;110168;1246;68592;-68
2022/01/23 06:07:12;;;;;;;19.90;11.30;;;;;;;-6.75;79.06;97759.39;110167;1247;68470;-68
2022/01/23 06:09:57;;;;;;;17.60;9.30;;;;;;;-6.68;79.15;97769.39;110243;1245;59678;-66
2022/01/23 06:12:26;;;;;;;16.30;10.50;;;;;;;-6.59;79.00;97773.64;110250;1247;60119;-66
2022/01/23 06:14:55;;;;;;;13.20;8.90;;;;;;;-6.52;78.76;97777.73;110169;1247;70459;-67
2022/01/23 06:17:25;;;;;;;27.20;17.00;;;;;;;-6.45;78.58;97776.36;110203;1247;67897;-68
2022/01/23 06:20:15;;;;;;;25.70;16.70;;;;;;;-6.41;78.42;97773.14;110066;1247;69325;-67
2022/01/23 06:23:21;;;;;;;30.20;18.40;;;;;;;-6.36;78.29;97771.96;109728;1251;59756;-66
2022/01/23 06:26:16;;;;;;;26.90;15.50;;;;;;;-6.32;77.77;97772.98;110273;1246;59707;-66
2022/01/23 06:28:59;;;;;;;42.70;22.60;;;;;;;-6.30;77.52;97779.76;110255;1247;70814;-66
2022/01/23 06:31:27;;;;;;;35.90;24.60;;;;;;;-6.33;77.89;97781.11;110099;1247;68537;-69
2022/01/23 06:33:58;;;;;;;45.00;28.00;;;;;;;-6.33;78.02;97781.62;110140;1247;69584;-66
2022/01/23 06:36:27;;;;;;;;;;;;;;;-6.30;77.94;97784.00;110118;1247;59685;-66
2022/01/23 06:38:56;;;;;;;30.70;18.40;;;;;;;-6.28;78.02;97784.67;110007;1247;59739;-66
2022/01/23 06:41:26;;;;;;;36.40;21.50;;;;;;;-6.25;77.20;97784.67;110112;1245;71262;-68
2022/01/23 06:44:22;;;;;;;16.00;11.00;;;;;;;-6.25;77.40;97790.27;110143;1247;68033;-66
2022/01/23 06:46:53;;;;;;;42.30;25.30;;;;;;;-6.23;77.61;97786.04;110295;1247;70083;-66
2022/01/23 06:49:22;;;;;;;43.30;25.70;;;;;;;-6.20;78.15;97789.08;109893;1247;59743;-66
2022/01/23 06:51:51;;;;;;;29.30;17.00;;;;;;;-6.14;78.24;97788.06;109991;1247;59734;-66
2022/01/23 06:54:21;;;;;;;30.30;17.90;;;;;;;-6.11;77.90;97786.88;110333;1244;70731;-65
2022/01/23 06:56:53;;;;;;;19.50;12.60;;;;;;;-6.07;77.77;97791.79;110266;1247;67739;-65
2022/01/23 06:59:22;;;;;;;30.00;16.40;;;;;;;-6.04;77.55;97794.34;110137;1247;69562;-65
2022/01/23 07:01:58;;;;;;;19.50;13.50;;;;;;;-6.02;77.50;97795.51;109828;1247;420353;-65
2022/01/23 07:04:56;;;;;;;20.00;12.10;;;;;;;-5.98;77.51;97793.13;109890;1246;59721;-65
2022/01/23 07:07:48;;;;;;;34.80;21.00;;;;;;;-5.93;77.67;97792.11;110290;1247;71496;-66
2022/01/23 07:10:42;;;;;;;24.50;15.10;;;;;;;-5.91;77.82;97787.84;110249;1247;67456;-68
2022/01/23 07:13:27;;;;;;;21.40;12.80;;;;;;;-5.85;77.85;97788.84;110078;1247;68410;-67
2022/01/23 07:16:12;;;;;;;20.50;11.40;;;;;;;-5.81;77.79;97784.09;110245;1247;60213;-66
2022/01/23 07:19:02;;;;;;;15.70;10.70;;;;;;;-5.75;77.48;97784.58;110186;1247;59683;-66
2022/01/23 07:21:39;;;;;;;28.20;17.30;;;;;;;-5.71;77.35;97782.53;110362;1244;72142;-66
2022/01/23 07:24:09;;;;;;;19.10;11.80;;;;;;;-5.68;77.17;97782.17;110223;1247;68725;-66
2022/01/23 07:26:39;;;;;;;19.70;12.70;;;;;;;-5.62;77.20;97784.71;110049;1246;69459;-66
2022/01/23 07:29:08;;;;;;;33.50;20.20;;;;;;;-5.57;77.26;97780.29;110198;1247;59706;-67
2022/01/23 07:34:13;;;;;;;55.70;33.20;;;;;;;-5.53;76.55;97780.45;110029;1247;71567;-68
2022/01/23 07:36:42;;;;;;;57.60;33.50;;;;;;;-5.53;77.15;97780.11;110249;1246;68128;-66
2022/01/23 07:39:46;;;;;;;36.70;24.10;;;;;;;-5.49;77.14;97780.94;109696;1252;69292;-68
2022/01/23 07:42:23;;;;;;;43.40;25.80;;;;;;;-5.43;76.94;97784.15;110237;1247;59739;-67
2022/01/23 07:45:03;;;;;;;34.10;22.10;;;;;;;-5.37;77.00;97785.14;110199;1246;59702;-68
2022/01/23 07:48:04;;;;;;;42.70;28.40;;;;;;;-5.30;76.76;97778.48;109971;1247;71550;-66
2022/01/23 07:50:40;;;;;;;71.40;43.00;;;;;;;-5.22;76.72;97779.47;110289;1245;68516;-67
2022/01/23 07:53:25;;;;;;;67.40;39.40;;;;;;;-5.11;76.91;97783.84;110217;1247;69968;-67
2022/01/23 07:56:05;;;;;;;51.20;31.20;;;;;;;-5.00;77.33;97781.23;110231;1247;59653;-67
2022/01/23 07:58:43;;;;;;;57.00;33.40;;;;;;;-4.89;76.78;97785.59;110593;1244;60057;-66
2022/01/23 08:01:31;;;;;;;45.00;28.50;;;;;;;-4.79;76.43;97787.75;110492;1244;70971;-68
2022/01/23 08:04:23;;;;;;;57.00;36.00;;;;;;;-4.72;76.00;97790.08;110063;1246;69196;-66
2022/01/23 08:07:08;;;;;;;29.80;20.50;;;;;;;-4.69;75.95;97790.06;110509;1244;69831;-67
2022/01/23 08:09:47;;;;;;;42.10;24.60;;;;;;;-4.66;75.44;97789.04;110213;1247;59771;-67
2022/01/23 08:12:17;;;;;;;36.90;21.00;;;;;;;-4.65;75.63;97793.95;110336;1245;59612;-66
2022/01/23 08:14:46;;;;;;;31.60;20.00;;;;;;;-4.62;75.55;97793.77;110316;1244;70823;-66
2022/01/23 08:17:15;;;;;;;28.00;17.80;;;;;;;-4.62;75.73;97795.48;110255;1246;69315;-66
2022/01/23 08:19:44;;;;;;;26.80;16.80;;;;;;;-4.60;75.70;97796.65;110168;1246;70056;-67
2022/01/23 08:22:13;;;;;;;48.80;26.70;;;;;;;-4.58;75.55;97797.64;110054;1247;59673;-65
2022/01/23 08:24:42;;;;;;;47.90;27.50;;;;;;;-4.65;75.49;97795.14;110304;1245;59754;-66
2022/01/23 08:27:11;;;;;;;30.50;21.00;;;;;;;-4.71;75.80;97795.01;110445;1244;72129;-67
2022/01/23 08:29:40;;;;;;;39.70;23.80;;;;;;;-4.71;75.89;97796.20;110246;1247;68702;-68
2022/01/23 08:32:10;;;;;;;21.30;14.60;;;;;;;-4.70;75.87;97794.33;110568;1244;69815;-68
2022/01/23 08:34:39;;;;;;;32.10;20.20;;;;;;;-4.68;75.89;97792.60;110574;1244;59633;-66
2022/01/23 08:37:08;;;;;;;23.70;15.00;;;;;;;-4.66;76.03;97791.58;110547;1244;59635;-67
2022/01/23 08:39:38;;;;;;;33.60;18.80;;;;;;;-4.61;75.96;97788.81;110259;1247;71582;-67
2022/01/23 08:42:17;;;;;;;34.50;22.60;;;;;;;-4.57;76.13;97787.45;110542;1244;69440;-66
2022/01/23 08:44:47;;;;;;;30.20;18.00;;;;;;;-4.54;76.04;97789.13;110389;1244;69205;-66
2022/01/23 08:47:18;;;;;;;26.50;17.90;;;;;;;-4.50;75.96;97792.15;110435;1244;59681;-66
2022/01/23 08:49:48;;;;;;;31.70;19.60;;;;;;;-4.46;75.91;97790.08;110469;1244;59689;-66
2022/01/23 08:52:20;;;;;;;19.40;13.20;;;;;;;-4.43;75.85;97796.70;110614;1244;71990;-66
2022/01/23 08:54:51;;;;;;;30.70;20.70;;;;;;;-4.41;75.90;97793.44;110605;1244;66842;-66
2022/01/23 08:57:20;;;;;;;32.80;20.40;;;;;;;-4.48;76.00;97793.67;110565;1244;69912;-67
2022/01/23 08:59:50;;;;;;;31.80;20.20;;;;;;;-4.55;76.77;97795.58;110585;1244;59738;-66
2022/01/23 09:02:19;;;;;;;31.20;19.40;;;;;;;-4.52;76.83;97800.16;110549;1244;59661;-66
2022/01/23 09:04:48;;;;;;;26.50;16.90;;;;;;;-4.50;76.79;97802.87;110569;1244;71788;-66
2022/01/23 09:07:17;;;;;;;34.20;20.10;;;;;;;-4.47;76.76;97806.43;110568;1244;67993;-66
2022/01/23 09:09:46;;;;;;;28.50;18.30;;;;;;;-4.47;76.86;97804.73;110289;1244;69333;-66
2022/01/23 09:14:43;;;;;;;27.70;17.00;;;;;;;-4.43;76.62;97806.56;110594;1244;59621;-66
2022/01/23 09:17:12;;;;;;;26.80;17.80;;;;;;;-4.40;76.61;97806.38;110495;1244;71574;-66
2022/01/23 09:19:45;;;;;;;21.70;14.80;;;;;;;-4.32;76.60;97810.91;110599;1244;69022;-66
2022/01/23 09:22:15;;;;;;;15.80;11.10;;;;;;;-4.21;76.52;97810.15;110654;1244;70089;-66
2022/01/23 09:24:45;;;;;;;18.30;11.70;;;;;;;-4.10;76.42;97811.42;110319;1247;59750;-66
2022/01/23 09:27:19;;;;;;;19.20;11.40;;;;;;;-3.96;76.24;97807.05;110051;1245;60133;-66
2022/01/23 09:29:52;;;;;;;20.50;12.40;;;;;;;-3.76;76.32;97805.16;110153;1247;72062;-65
2022/01/23 09:32:23;;;;;;;21.30;16.10;;;;;;;-3.56;76.26;97801.37;110428;1244;68561;-65
2022/01/23 09:34:52;;;;;;;20.20;13.30;;;;;;;-3.39;76.22;97794.37;110372;1244;69209;-67
2022/01/23 09:37:21;;;;;;;20.40;14.50;;;;;;;-3.23;75.76;97791.29;110512;1244;59670;-66
2022/01/23 09:39:50;;;;;;;23.30;13.90;;;;;;;-3.11;75.14;97789.61;110574;1244;59669;-69
2022/01/23 09:42:27;;;;;;;25.90;14.70;;;;;;;-3.01;74.65;97783.86;110558;1244;72243;-69
2022/01/23 09:45:07;;;;;;;21.50;12.60;;;;;;;-2.98;73.13;97778.02;110345;1244;69037;-68
2022/01/23 09:47:38;;;;;;;21.10;12.80;;;;;;;-2.97;72.64;97776.30;110403;1244;69386;-67
2022/01/23 09:50:08;;;;;;;;;;;;;;;-2.92;72.79;97775.73;110584;1244;59646;-66
2022/01/23 09:52:38;;;;;;;34.30;20.40;;;;;;;-2.86;72.82;97777.69;110332;1244;59630;-66
2022/01/23 09:55:12;;;;;;;29.10;17.60;;;;;;;-2.79;72.25;97778.80;110381;1244;71328;-66
2022/01/23 09:57:46;;;;;;;34.90;21.50;;;;;;;-2.78;72.58;97777.92;110178;1247;69193;-68
2022/01/23 10:00:24;;;;;;;38.80;24.50;;;;;;;-2.80;72.42;97778.80;110359;1244;70020;-67
2022/01/23 10:02:53;;;;;;;32.40;20.10;;;;;;;-2.84;72.28;97776.30;110389;1244;59732;-67
2022/01/23 10:05:23;;;;;;;32.70;19.10;;;;;;;-2.91;72.15;97774.52;110535;1244;59656;-66
2022/01/23 10:07:53;;;;;;;31.00;19.70;;;;;;;-2.97;72.11;97773.23;110523;1244;72157;-65
2022/01/23 10:10:29;;;;;;;;;;;;;;;-3.03;72.28;97770.92;110525;1244;69202;-65
2022/01/23 10:13:00;;;;;;;30.30;19.90;;;;;;;-3.09;72.55;97769.80;110495;1244;70040;-66
2022/01/23 10:15:31;;;;;;;25.90;16.50;;;;;;;-3.13;72.66;97775.83;110512;1244;59688;-65
2022/01/23 10:18:05;;;;;;;32.90;22.10;;;;;;;-3.18;72.65;97772.48;110550;1245;59624;-66
2022/01/23 10:20:37;;;;;;;36.80;23.00;;;;;;;-3.22;72.88;97780.04;110587;1245;72083;-67
2022/01/23 10:23:15;;;;;;;38.50;22.40;;;;;;;-3.22;72.98;97780.02;110436;1244;69197;-67
2022/01/23 10:25:52;;;;;;;32.30;20.60;;;;;;;-3.31;72.92;97784.90;110565;1244;68651;-68
2022/01/23 10:28:29;;;;;;;31.90;19.50;;;;;;;-3.46;72.90;97787.13;110473;1244;59866;-67
2022/01/23 10:31:06;;;;;;;33.90;19.20;;;;;;;-3.57;73.20;97786.39;110230;1246;59732;-66
2022/01/23 10:33:39;;;;;;;21.00;13.30;;;;;;;-3.60;73.41;97784.38;110292;1244;70875;-67
2022/01/23 10:36:15;;;;;;;23.90;14.60;;;;;;;-3.47;73.58;97777.42;110562;1244;67784;-67
2022/01/23 10:39:01;;;;;;;21.50;13.60;;;;;;;-3.28;73.30;97774.64;110285;1245;68318;-67
2022/01/23 10:49:57;;;;;;;24.60;16.10;;;;;;;-2.28;69.61;97766.60;110231;1248;67241;-67
2022/01/23 10:52:47;;;;;;;19.80;12.40;;;;;;;-1.64;69.62;97762.73;110438;1244;69402;-68
2022/01/23 10:55:19;;;;;;;31.20;20.40;;;;;;;0.01;66.85;97760.30;110496;1244;59725;-67
2022/01/23 10:57:53;;;;;;;28.60;17.30;;;;;;;1.89;64.55;97755.74;110488;1244;60116;-67
2022/01/23 11:00:38;;;;;;;33.90;22.30;;;;;;;3.90;61.89;97755.30;110342;1245;70468;-67
2022/01/23 11:03:18;;;;;;;21.80;14.10;;;;;;;5.88;48.93;97747.89;110531;1244;67868;-67
2022/01/23 11:05:48;;;;;;;22.80;14.70;;;;;;;7.25;45.48;97746.45;110546;1244;68827;-67
2022/01/23 11:08:21;;;;;;;;;;;;;;;8.54;43.74;97745.52;110342;1245;59681;-67
2022/01/23 11:11:11;;;;;;;18.60;11.60;;;;;;;9.75;43.08;97745.91;110466;1244;59799;-69
2022/01/23 11:20:06;;;;;;;17.90;11.40;;;;;;;12.92;32.67;97743.89;110259;1245;68651;-68
2022/01/23 11:22:43;;;;;;;29.60;15.90;;;;;;;13.54;33.76;97737.84;110296;1247;59790;-68
2022/01/23 11:25:23;;;;;;;36.00;21.10;;;;;;;13.74;29.80;97738.46;110174;1244;59687;-69
2022/01/23 11:28:03;;;;;;;27.00;16.90;;;;;;;14.03;30.31;97739.33;110088;1245;71405;-69
2022/01/23 11:30:45;;;;;;;27.20;17.50;;;;;;;14.29;29.34;97733.48;110154;1244;68077;-68
2022/01/23 11:33:18;;;;;;;24.20;15.70;;;;;;;14.16;26.79;97735.98;110299;1245;69975;-68
2022/01/23 11:35:50;;;;;;;21.50;14.00;;;;;;;14.09;28.55;97740.89;110540;1244;60037;-67
2022/01/23 11:38:22;;;;;;;28.30;17.70;;;;;;;14.46;27.13;97743.48;110306;1245;59744;-70
2022/01/23 11:55:34;;;;;;;57.90;38.10;;;;;;;14.72;24.89;97741.33;110345;1245;71961;-70
2022/01/23 11:58:05;;;;;;;38.60;26.50;;;;;;;14.58;25.26;97737.60;110415;1244;68449;-67
2022/01/23 12:00:39;;;;;;;;;;;;;;;14.52;25.60;97742.28;110199;1245;69362;-66
2022/01/23 12:03:17;;;;;;;39.70;28.90;;;;;;;14.27;26.04;97743.63;110427;1244;59677;-68
2022/01/23 12:05:49;;;;;;;31.40;22.30;;;;;;;14.21;25.39;97745.52;110394;1244;60107;-68
2022/01/23 12:08:32;;;;;;;33.40;23.70;;;;;;;14.16;25.27;97741.34;110397;1243;70593;-69
2022/01/23 12:11:24;;;;;;;24.50;16.70;;;;;;;13.74;25.48;97737.95;110375;1245;68623;-68
2022/01/23 12:17:09;;;;;;;20.10;14.30;;;;;;;13.26;26.28;97741.40;110643;1247;59686;-66
2022/01/23 12:19:53;;;;;;;16.70;12.60;;;;;;;13.35;26.23;97744.77;110414;1244;59746;-69
2022/01/23 12:22:39;;;;;;;16.60;11.60;;;;;;;13.64;25.83;97746.42;110395;1245;72039;-68
2022/01/23 12:25:31;;;;;;;16.20;10.20;;;;;;;13.90;25.22;97741.23;110407;1244;69009;-67
2022/01/23 12:28:24;;;;;;;15.40;10.00;;;;;;;13.91;25.03;97737.66;110272;1247;70003;-68
2022/01/23 12:30:55;;;;;;;15.30;10.50;;;;;;;13.88;25.19;97738.96;110230;1247;59728;-68
2022/01/23 12:33:31;;;;;;;17.50;12.60;;;;;;;13.93;25.07;97739.40;110486;1244;59692;-68
2022/01/23 12:36:07;;;;;;;16.20;11.40;;;;;;;13.82;24.94;97737.71;110350;1244;71585;-67
2022/01/23 12:38:45;;;;;;;13.50;9.80;;;;;;;13.94;25.17;97739.88;110495;1244;68522;-68
2022/01/23 12:41:25;;;;;;;12.30;8.60;;;;;;;13.99;24.56;97741.21;110297;1245;68878;-68
2022/01/23 12:43:59;;;;;;;12.00;7.90;;;;;;;13.70;24.63;97743.16;110376;1244;59717;-67
2022/01/23 12:46:34;;;;;;;13.70;9.30;;;;;;;13.13;24.78;97750.15;110299;1246;59700;-68
2022/01/23 12:49:24;;;;;;;11.80;8.30;;;;;;;12.80;25.55;97756.70;110405;1244;71574;-69
2022/01/23 12:51:55;;;;;;;11.30;8.80;;;;;;;12.36;25.76;97761.56;110435;1244;69310;-66
2022/01/23 12:54:28;;;;;;;11.50;8.60;;;;;;;12.14;26.33;97764.77;110615;1244;69517;-66
2022/01/23 12:57:14;;;;;;;12.50;9.70;;;;;;;11.71;27.13;97772.95;110507;1244;59657;-70
2022/01/23 12:59:51;;;;;;;14.80;10.80;;;;;;;11.45;27.49;97770.98;110402;1244;59722;-66
2022/01/23 13:02:23;;;;;;;13.60;9.70;;;;;;;11.16;27.71;97771.91;110307;1245;71579;-67
2022/01/23 13:04:54;;;;;;;16.00;12.70;;;;;;;11.08;28.01;97778.73;110615;1244;68363;-68
2022/01/23 13:10:48;;;;;;;14.40;11.00;;;;;;;10.78;27.79;97789.55;110573;1244;59750;-69
2022/01/23 13:13:22;;;;;;;12.10;10.70;;;;;;;10.40;28.19;97793.11;110475;1244;59744;-71
2022/01/23 13:16:16;;;;;;;15.10;11.30;;;;;;;10.17;28.78;97793.04;110481;1244;72136;-68
2022/01/23 13:30:24;;;;;;;12.50;7.90;;;;;;;8.60;30.36;97810.52;110497;1244;70675;-70
2022/01/23 13:33:03;;;;;;;14.10;10.90;;;;;;;8.78;31.14;97808.63;110407;1244;69208;-69
2022/01/23 13:35:38;;;;;;;12.90;9.40;;;;;;;9.14;30.72;97804.05;110081;1245;68623;-70
2022/01/23 13:38:22;;;;;;;14.90;9.30;;;;;;;9.54;29.53;97799.86;110365;1245;59851;-70
2022/01/23 13:41:00;;;;;;;15.50;10.40;;;;;;;9.53;29.02;97798.81;110399;1244;59676;-69
2022/01/23 13:52:02;;;;;;;12.50;8.80;;;;;;;7.75;31.78;97821.08;110262;1245;59868;-68
2022/01/23 14:02:44;;;;;;;14.90;10.40;;;;;;;7.09;33.16;97832.40;110277;1245;69911;-69
2022/01/23 14:05:30;;;;;;;13.50;10.10;;;;;;;6.64;33.85;97832.05;110535;1245;59612;-68
2022/01/23 14:08:03;;;;;;;16.30;12.50;;;;;;;6.56;34.37;97838.91;110611;1244;59702;-67
2022/01/23 14:10:39;;;;;;;16.40;10.10;;;;;;;6.58;34.20;97838.27;110579;1244;70780;-71
2022/01/23 14:13:14;;;;;;;17.20;12.20;;;;;;;6.35;34.52;97840.80;110319;1246;69313;-68
2022/01/23 14:15:45;;;;;;;14.20;10.00;;;;;;;6.01;35.17;97842.09;110459;1245;69192;-69
2022/01/23 14:18:22;;;;;;;18.60;11.60;;;;;;;6.01;35.43;97837.58;110683;1244;59670;-67
2022/01/23 14:21:01;;;;;;;13.40;9.80;;;;;;;6.03;35.49;97834.71;110659;1244;59663;-67
2022/01/23 14:23:34;;;;;;;13.80;9.50;;;;;;;5.78;35.76;97830.85;110534;1244;71445;-68
2022/01/23 14:26:07;;;;;;;14.80;9.00;;;;;;;5.69;36.16;97838.55;110618;1244;68141;-67
2022/01/23 14:28:44;;;;;;;11.70;8.90;;;;;;;5.70;36.16;97838.69;110609;1244;68652;-67
2022/01/23 14:31:20;;;;;;;14.10;9.50;;;;;;;5.68;36.33;97837.95;110582;1244;59752;-67
2022/01/23 14:33:58;;;;;;;14.40;9.70;;;;;;;5.45;36.66;97839.48;110587;1244;59735;-70
2022/01/23 14:36:39;;;;;;;12.20;7.80;;;;;;;5.28;36.69;97844.23;110645;1243;70804;-69
2022/01/23 14:39:16;;;;;;;17.40;11.10;;;;;;;5.16;37.25;97844.58;110498;1244;68529;-68
2022/01/23 14:41:46;;;;;;;18.80;12.30;;;;;;;4.70;37.41;97848.64;110593;1244;69839;-68
2022/01/23 14:44:22;;;;;;;16.90;11.00;;;;;;;4.38;37.89;97852.39;110660;1245;59741;-70
2022/01/23 14:46:54;;;;;;;15.70;10.40;;;;;;;3.87;38.10;97851.48;110651;1244;59673;-68
2022/01/23 14:49:27;;;;;;;14.10;10.50;;;;;;;3.51;38.93;97847.53;110637;1244;71597;-67
2022/01/23 14:52:00;;;;;;;16.60;11.60;;;;;;;3.19;39.77;97851.80;110776;1244;67795;-67
2022/01/23 14:54:32;;;;;;;14.40;10.00;;;;;;;2.72;40.53;97856.90;110652;1244;69820;-68
2022/01/23 14:57:03;;;;;;;16.70;11.20;;;;;;;2.14;42.00;97853.64;110531;1244;59745;-67
2022/01/23 14:59:35;;;;;;;19.30;13.60;;;;;;;1.66;43.14;97858.08;110550;1244;59596;-70
2022/01/23 15:02:06;;;;;;;20.60;12.90;;;;;;;1.07;44.48;97864.58;110659;1245;72133;-70
2022/01/23 15:04:40;;;;;;;22.20;14.90;;;;;;;0.50;45.42;97868.49;110572;1244;68571;-68
2022/01/23 15:07:14;;;;;;;15.80;10.80;;;;;;;0.11;46.17;97872.52;110423;1244;69200;-68
2022/01/23 15:09:46;;;;;;;19.60;12.60;;;;;;;-0.27;47.62;97876.13;110242;1244;59744;-70
2022/01/23 15:12:17;;;;;;;17.40;13.10;;;;;;;-0.62;48.39;97882.54;110541;1244;59655;-68
2022/01/23 15:14:46;;;;;;;21.10;12.50;;;;;;;-0.92;49.23;97881.43;110611;1244;70510;-66
2022/01/23 15:17:15;;;;;;;18.40;13.10;;;;;;;-1.12;50.46;97884.39;110398;1244;68696;-66
2022/01/23 15:19:44;;;;;;;15.90;11.40;;;;;;;-1.36;50.45;97883.78;110446;1242;69824;-67
2022/01/23 15:22:17;;;;;;;13.60;10.50;;;;;;;-1.70;51.71;97883.84;110649;1244;59730;-68
2022/01/23 15:24:47;;;;;;;30.40;17.40;;;;;;;-1.89;51.56;97891.85;110423;1244;59698;-67
2022/01/23 15:27:16;;;;;;;;;;;;;;;-2.10;52.42;97897.80;110631;1244;70713;-66
2022/01/23 15:29:46;;;;;;;23.70;14.40;;;;;;;-2.30;52.53;97900.30;110532;1245;69008;-67